Login to view Products
 
Monday, April 23, 2018 (22:45 UTC)
Abu Dhabi International Airport
Last Updated: 23-Apr-2018 (22:45Z)
Wind Dir/Speed: SSE at 06 kt
Temperature: 30.8°C
Rel. Humidity: 34 %
Pressure: 1006.8 hPa
Visibility: 8000 m
ACTUALS
  • METAR OMAA 232200Z 11004KT 8000 NSC 30/12 Q1007 NOSIG
  • TAF OMAA 231700Z 2318/2500 06010KT 8000 NSC BECMG 2322/2400 16012KT PROB30 TEMPO 2401/2406 16018KT 3000 BLDU BECMG 2411/2413 33010KT BECMG 2417/2419 06006KT=
D:\Input Parser\Destinations\Final\17\OMAAL1800170081197016.txt